Bayonne — WDB4786 — position and weather

sailwx.info

Track history (hours):
 
Tides and Currents Weather Stations Pressure Air Temp Water Temp Dewpoint Dewpoint Depression Visibility Wind Speed Wind Dir Waves Ship Positions

Bayonne

Owner: PORT IMPERIAL FERRY CORP, WEEHAWKEN, NJ. More information available from US FCC via Universal Licensing System and Coast Guard Vessel Documentation Center.

Last reported at 2018-Jan-20 01:25 UTC. Time now 2018-Jan-21 14:54 UTC.
Position N 40°47' W 074°01'.

Length 26 m; draft 2 m.

Type: Passenger vessel. MMSI: 366902330.

Date/timePositionNaut miles runAvg speedWind from/ knotsBaromVisibWave heightAir tempDewpointWater temp
2018-Jan-20 01:25N 40°47' W 074°01'410.8
2018-Jan-20 01:00N 40°42' W 074°00'4 8.3
2018-Jan-20 00:29N 40°47' W 074°01'5 9.5
2018-Jan-20 00:00N 40°42' W 074°00'1 2.0
2018-Jan-19 23:30N 40°43' W 074°01'4 7.2
2018-Jan-19 23:00N 40°47' W 074°01'4 9.0
2018-Jan-19 22:30N 40°42' W 074°00'3 5.4
2018-Jan-19 22:00N 40°45' W 074°01'0 0.5
2018-Jan-19 21:31N 40°45' W 074°01'3 5.4
2018-Jan-19 21:00N 40°42' W 074°00'4 0.8
2018-Jan-19 15:48N 40°46' W 074°01'311.4
2018-Jan-19 15:30N 40°43' W 074°01'4 7.3
2018-Jan-19 15:00N 40°47' W 074°01'4 7.2
2018-Jan-19 14:31N 40°43' W 074°01'1 2.4
2018-Jan-19 14:01N 40°42' W 074°00'3 5.7
2018-Jan-19 13:31N 40°45' W 074°01'2 3.4
2018-Jan-19 13:00N 40°47' W 074°01'4 7.1
2018-Jan-19 12:30N 40°43' W 074°01'1 2.5
2018-Jan-19 12:01N 40°42' W 074°01'5 9.2
2018-Jan-19 11:31N 40°46' W 074°00'0 0.5
2018-Jan-19 11:00N 40°47' W 074°01'0 0.0
2018-Jan-19 01:25N 40°47' W 074°01'411.0
2018-Jan-19 01:01N 40°42' W 074°00'4 8.7
2018-Jan-19 00:30N 40°47' W 074°01'5 9.5
2018-Jan-19 00:01N 40°42' W 074°01'1 1.9
2018-Jan-18 23:31N 40°43' W 074°01'4 7.3
2018-Jan-18 23:00N 40°47' W 074°01'4 8.8
2018-Jan-18 22:30N 40°42' W 074°00'3 5.7
2018-Jan-18 22:00N 40°45' W 074°01'0 0.4
2018-Jan-18 21:30N 40°45' W 074°01'3 5.6
2018-Jan-18 21:01N 40°42' W 074°00'4 0.8
2018-Jan-18 16:06N 40°46' W 074°01'0 0.5
2018-Jan-18 15:59N 40°46' W 074°01'4 8.0
2018-Jan-18 15:31N 40°42' W 074°01'4 8.2
2018-Jan-18 15:00N 40°47' W 074°01'4 7.1
2018-Jan-18 14:31N 40°43' W 074°01'1 2.4
2018-Jan-18 14:00N 40°42' W 074°00'2 4.6
2018-Jan-18 13:31N 40°44' W 074°01'2 4.4
2018-Jan-18 13:00N 40°47' W 074°01'4 7.6
2018-Jan-18 12:31N 40°43' W 074°01'1 2.6
2018-Jan-18 12:00N 40°42' W 074°00'4 8.1
2018-Jan-18 11:30N 40°46' W 074°01'1 1.3
2018-Jan-18 11:01N 40°46' W 074°00'0 0.0
2018-Jan-18 04:03N 40°47' W 074°01'0 0.0
2018-Jan-18 04:00N 40°47' W 074°01'0 0.0
2018-Jan-18 01:28N 40°47' W 074°01'4 9.6
2018-Jan-18 01:00N 40°42' W 074°00'3 2.6
2018-Jan-18 00:01N 40°45' W 074°01'126.5
2018-Jan-17 23:58N 40°46' W 074°01'  
2018-Jan-12 15:00N 40°42' W 074°00'2 4.5
2018-Jan-12 14:30N 40°44' W 074°01'1 2.1
2018-Jan-12 14:00N 40°45' W 074°01'3 6.6
2018-Jan-12 13:31N 40°42' W 074°00'1 1.8
2018-Jan-12 13:00N 40°43' W 074°01'4 7.7
2018-Jan-12 12:30N 40°47' W 074°01'3 6.0
2018-Jan-12 12:01N 40°44' W 074°01'2 3.4
2018-Jan-12 11:31N 40°42' W 074°00'5 9.0
2018-Jan-12 11:00N 40°47' W 074°01'0 0.0
2018-Jan-12 10:30N 40°47' W 074°01'1 0.1
2018-Jan-12 01:33N 40°46' W 074°01'112.5
2018-Jan-12 01:30N 40°45' W 074°01'2 4.7
2018-Jan-12 01:01N 40°43' W 074°01'2 4.5
2018-Jan-12 00:30N 40°45' W 074°01'0 0.7
2018-Jan-12 00:01N 40°45' W 074°01'3 5.7
2018-Jan-11 23:31N 40°42' W 074°01'3 5.9
2018-Jan-11 23:00N 40°45' W 074°01'3 6.4
2018-Jan-11 22:30N 40°42' W 074°00'2 3.2
2018-Jan-11 22:01N 40°44' W 074°01'3 6.0
2018-Jan-11 21:30N 40°47' W 074°01'4 7.7
2018-Jan-11 21:01N 40°43' W 074°01'3 0.6
2018-Jan-11 16:05N 40°46' W 074°01'0 5.9
2018-Jan-11 16:00N 40°45' W 074°01'3 6.8
2018-Jan-11 15:30N 40°42' W 074°01'5 9.0
2018-Jan-11 15:00N 40°47' W 074°01'2 3.6
2018-Jan-11 14:31N 40°45' W 074°01'3 5.8
2018-Jan-11 14:01N 40°42' W 074°01'0 0.4
2018-Jan-11 13:31N 40°42' W 074°01'4 8.8
2018-Jan-11 13:00N 40°47' W 074°01'1 2.8
2018-Jan-11 12:30N 40°45' W 074°01'3 6.2
2018-Jan-11 12:01N 40°42' W 074°00'1 2.5
2018-Jan-11 11:31N 40°43' W 074°01'3 0.3
2018-Jan-11 00:50N 40°47' W 074°01'413.2
2018-Jan-11 00:30N 40°42' W 074°00'3 5.9
2018-Jan-11 00:01N 40°45' W 074°01'1 1.5
2018-Jan-10 23:30N 40°46' W 074°01'4 6.9
2018-Jan-10 23:00N 40°42' W 074°00'4 3.8
2018-Jan-10 21:56N 40°46' W 074°01'4 9.2
2018-Jan-10 21:31N 40°42' W 074°01'3 5.4
2018-Jan-10 21:00N 40°45' W 074°01'1 0.2
2018-Jan-10 15:59N 40°46' W 074°01'4 8.7
2018-Jan-10 15:30N 40°42' W 074°00'4 5.9
2018-Jan-10 14:52N 40°46' W 074°01'410.2
2018-Jan-10 14:31N 40°42' W 074°01'1 1.4
2018-Jan-10 14:01N 40°42' W 074°01'4 6.8
2018-Jan-10 13:23N 40°46' W 074°01'3 8.4
2018-Jan-10 13:00N 40°43' W 074°01'4 7.1
2018-Jan-10 12:30N 40°46' W 074°01'4 7.2
2018-Jan-10 12:00N 40°43' W 074°01'2 4.4
2018-Jan-10 11:30N 40°45' W 074°01'  
Track history (hours):
 
Tides and Currents Weather Stations Pressure Air Temp Water Temp Dewpoint Dewpoint Depression Visibility Wind Speed Wind Dir Waves Ship Positions

Bayonne

Owner: PORT IMPERIAL FERRY CORP, WEEHAWKEN, NJ. More information available from US FCC via Universal Licensing System and Coast Guard Vessel Documentation Center.

Last reported at 2018-Jan-20 01:25 UTC. Time now 2018-Jan-21 14:54 UTC.
Position N 40°47' W 074°01'.

Length 26 m; draft 2 m.

Type: Passenger vessel. MMSI: 366902330.

Date/timePositionNaut miles runAvg speedWind from/ knotsBaromVisibWave heightAir tempDewpointWater temp
2018-Jan-20 01:25N 40°47' W 074°01'410.8
2018-Jan-20 01:00N 40°42' W 074°00'4 8.3
2018-Jan-20 00:29N 40°47' W 074°01'5 9.5
2018-Jan-20 00:00N 40°42' W 074°00'1 2.0
2018-Jan-19 23:30N 40°43' W 074°01'4 7.2
2018-Jan-19 23:00N 40°47' W 074°01'4 9.0
2018-Jan-19 22:30N 40°42' W 074°00'3 5.4
2018-Jan-19 22:00N 40°45' W 074°01'0 0.5
2018-Jan-19 21:31N 40°45' W 074°01'3 5.4
2018-Jan-19 21:00N 40°42' W 074°00'4 0.8
2018-Jan-19 15:48N 40°46' W 074°01'311.4
2018-Jan-19 15:30N 40°43' W 074°01'4 7.3
2018-Jan-19 15:00N 40°47' W 074°01'4 7.2
2018-Jan-19 14:31N 40°43' W 074°01'1 2.4
2018-Jan-19 14:01N 40°42' W 074°00'3 5.7
2018-Jan-19 13:31N 40°45' W 074°01'2 3.4
2018-Jan-19 13:00N 40°47' W 074°01'4 7.1
2018-Jan-19 12:30N 40°43' W 074°01'1 2.5
2018-Jan-19 12:01N 40°42' W 074°01'5 9.2
2018-Jan-19 11:31N 40°46' W 074°00'0 0.5
2018-Jan-19 11:00N 40°47' W 074°01'0 0.0
2018-Jan-19 01:25N 40°47' W 074°01'411.0
2018-Jan-19 01:01N 40°42' W 074°00'4 8.7
2018-Jan-19 00:30N 40°47' W 074°01'5 9.5
2018-Jan-19 00:01N 40°42' W 074°01'1 1.9
2018-Jan-18 23:31N 40°43' W 074°01'4 7.3
2018-Jan-18 23:00N 40°47' W 074°01'4 8.8
2018-Jan-18 22:30N 40°42' W 074°00'3 5.7
2018-Jan-18 22:00N 40°45' W 074°01'0 0.4
2018-Jan-18 21:30N 40°45' W 074°01'3 5.6
2018-Jan-18 21:01N 40°42' W 074°00'4 0.8
2018-Jan-18 16:06N 40°46' W 074°01'0 0.5
2018-Jan-18 15:59N 40°46' W 074°01'4 8.0
2018-Jan-18 15:31N 40°42' W 074°01'4 8.2
2018-Jan-18 15:00N 40°47' W 074°01'4 7.1
2018-Jan-18 14:31N 40°43' W 074°01'1 2.4
2018-Jan-18 14:00N 40°42' W 074°00'2 4.6
2018-Jan-18 13:31N 40°44' W 074°01'2 4.4
2018-Jan-18 13:00N 40°47' W 074°01'4 7.6
2018-Jan-18 12:31N 40°43' W 074°01'1 2.6
2018-Jan-18 12:00N 40°42' W 074°00'4 8.1
2018-Jan-18 11:30N 40°46' W 074°01'1 1.3
2018-Jan-18 11:01N 40°46' W 074°00'0 0.0
2018-Jan-18 04:03N 40°47' W 074°01'0 0.0
2018-Jan-18 04:00N 40°47' W 074°01'0 0.0
2018-Jan-18 01:28N 40°47' W 074°01'4 9.6
2018-Jan-18 01:00N 40°42' W 074°00'3 2.6
2018-Jan-18 00:01N 40°45' W 074°01'126.5
2018-Jan-17 23:58N 40°46' W 074°01'  
2018-Jan-12 15:00N 40°42' W 074°00'2 4.5
2018-Jan-12 14:30N 40°44' W 074°01'1 2.1
2018-Jan-12 14:00N 40°45' W 074°01'3 6.6
2018-Jan-12 13:31N 40°42' W 074°00'1 1.8
2018-Jan-12 13:00N 40°43' W 074°01'4 7.7
2018-Jan-12 12:30N 40°47' W 074°01'3 6.0
2018-Jan-12 12:01N 40°44' W 074°01'2 3.4
2018-Jan-12 11:31N 40°42' W 074°00'5 9.0
2018-Jan-12 11:00N 40°47' W 074°01'0 0.0
2018-Jan-12 10:30N 40°47' W 074°01'1 0.1
2018-Jan-12 01:33N 40°46' W 074°01'112.5
2018-Jan-12 01:30N 40°45' W 074°01'2 4.7
2018-Jan-12 01:01N 40°43' W 074°01'2 4.5
2018-Jan-12 00:30N 40°45' W 074°01'0 0.7
2018-Jan-12 00:01N 40°45' W 074°01'3 5.7
2018-Jan-11 23:31N 40°42' W 074°01'3 5.9
2018-Jan-11 23:00N 40°45' W 074°01'3 6.4
2018-Jan-11 22:30N 40°42' W 074°00'2 3.2
2018-Jan-11 22:01N 40°44' W 074°01'3 6.0
2018-Jan-11 21:30N 40°47' W 074°01'4 7.7
2018-Jan-11 21:01N 40°43' W 074°01'3 0.6
2018-Jan-11 16:05N 40°46' W 074°01'0 5.9
2018-Jan-11 16:00N 40°45' W 074°01'3 6.8
2018-Jan-11 15:30N 40°42' W 074°01'5 9.0
2018-Jan-11 15:00N 40°47' W 074°01'2 3.6
2018-Jan-11 14:31N 40°45' W 074°01'3 5.8
2018-Jan-11 14:01N 40°42' W 074°01'0 0.4
2018-Jan-11 13:31N 40°42' W 074°01'4 8.8
2018-Jan-11 13:00N 40°47' W 074°01'1 2.8
2018-Jan-11 12:30N 40°45' W 074°01'3 6.2
2018-Jan-11 12:01N 40°42' W 074°00'1 2.5
2018-Jan-11 11:31N 40°43' W 074°01'3 0.3
2018-Jan-11 00:50N 40°47' W 074°01'413.2
2018-Jan-11 00:30N 40°42' W 074°00'3 5.9
2018-Jan-11 00:01N 40°45' W 074°01'1 1.5
2018-Jan-10 23:30N 40°46' W 074°01'4 6.9
2018-Jan-10 23:00N 40°42' W 074°00'4 3.8
2018-Jan-10 21:56N 40°46' W 074°01'4 9.2
2018-Jan-10 21:31N 40°42' W 074°01'3 5.4
2018-Jan-10 21:00N 40°45' W 074°01'1 0.2
2018-Jan-10 15:59N 40°46' W 074°01'4 8.7
2018-Jan-10 15:30N 40°42' W 074°00'4 5.9
2018-Jan-10 14:52N 40°46' W 074°01'410.2
2018-Jan-10 14:31N 40°42' W 074°01'1 1.4
2018-Jan-10 14:01N 40°42' W 074°01'4 6.8
2018-Jan-10 13:23N 40°46' W 074°01'3 8.4
2018-Jan-10 13:00N 40°43' W 074°01'4 7.1
2018-Jan-10 12:30N 40°46' W 074°01'4 7.2
2018-Jan-10 12:00N 40°43' W 074°01'2 4.4
2018-Jan-10 11:30N 40°45' W 074°01'  

Dump ship's entire track history